createdAt,value
2023-06-14T00:00:45.598Z,25.25
2023-06-14T00:01:49.678Z,23.00
2023-06-14T00:02:53.020Z,24.00
2023-06-14T00:03:56.545Z,22.00
2023-06-14T00:05:08.815Z,23.75
2023-06-14T00:06:31.838Z,21.00
2023-06-14T00:07:45.749Z,19.00
2023-06-14T00:08:48.686Z,20.50
2023-06-14T00:09:51.810Z,20.00
2023-06-14T00:11:01.809Z,19.00
2023-06-14T00:12:05.095Z,17.25
2023-06-14T00:13:13.670Z,17.25
2023-06-14T00:14:19.517Z,16.25
2023-06-14T00:15:23.329Z,16.00
2023-06-14T00:16:32.833Z,17.00
2023-06-14T00:17:36.400Z,16.00
2023-06-14T00:18:46.820Z,14.25
2023-06-14T00:19:49.734Z,14.50
2023-06-14T00:20:53.715Z,12.25
2023-06-14T00:21:56.900Z,17.25
2023-06-14T00:22:59.828Z,17.00
2023-06-14T00:24:09.882Z,14.50
2023-06-14T00:25:27.877Z,16.00
2023-06-14T00:26:32.272Z,15.00
2023-06-14T00:27:35.254Z,16.00
2023-06-14T00:28:38.208Z,16.00
2023-06-14T00:29:47.835Z,13.00
2023-06-14T00:30:50.811Z,14.50
2023-06-14T00:31:53.687Z,12.00
2023-06-14T00:32:57.094Z,16.00
2023-06-14T00:34:00.027Z,16.50
2023-06-14T00:35:09.855Z,17.00
2023-06-14T00:36:13.106Z,17.50
2023-06-14T00:37:16.114Z,19.00
2023-06-14T00:38:19.092Z,17.25
2023-06-14T00:39:22.095Z,17.00
2023-06-14T00:40:31.967Z,17.75
2023-06-14T00:41:34.868Z,16.00
2023-06-14T00:42:37.823Z,13.75
2023-06-14T00:43:40.680Z,10.75
2023-06-14T00:44:43.540Z,12.00
2023-06-14T00:45:52.873Z,10.75
2023-06-14T00:46:55.935Z,11.00
2023-06-14T00:47:59.080Z,9.50
2023-06-14T00:49:03.449Z,9.00
2023-06-14T00:50:09.682Z,8.25
2023-06-14T00:51:18.895Z,8.25
2023-06-14T00:52:22.830Z,9.25
2023-06-14T00:53:27.576Z,8.00
2023-06-14T00:54:50.880Z,7.25
2023-06-14T00:55:55.131Z,8.75
2023-06-14T00:57:04.901Z,9.00
2023-06-14T00:58:08.684Z,8.50
2023-06-14T00:59:13.834Z,9.00
2023-06-14T01:00:37.971Z,8.00
2023-06-14T01:01:47.939Z,9.00
2023-06-14T01:02:52.341Z,9.00
2023-06-14T01:03:55.436Z,7.00
2023-06-14T01:04:59.211Z,8.50
2023-06-14T01:06:33.435Z,8.00
2023-06-14T01:08:01.929Z,9.00
2023-06-14T01:09:30.972Z,7.25
2023-06-14T01:11:01.921Z,8.00
2023-06-14T01:12:12.769Z,8.00
2023-06-14T01:13:33.981Z,6.75
2023-06-14T01:14:37.549Z,9.00
2023-06-14T01:15:47.955Z,9.00
2023-06-14T01:16:55.442Z,9.50
2023-06-14T01:18:05.160Z,9.50
2023-06-14T01:19:09.881Z,10.00
2023-06-14T01:20:16.725Z,9.00
2023-06-14T01:21:30.960Z,7.00
2023-06-14T01:22:35.554Z,7.00
2023-06-14T01:23:58.472Z,7.00
2023-06-14T01:25:08.940Z,9.50
2023-06-14T01:26:12.191Z,8.75
2023-06-14T01:27:25.067Z,6.25
2023-06-14T01:28:34.293Z,7.00
2023-06-14T01:29:38.620Z,9.50
2023-06-14T01:30:47.946Z,6.50
2023-06-14T01:31:51.883Z,6.75
2023-06-14T01:33:04.011Z,7.75
2023-06-14T01:34:07.013Z,8.00
2023-06-14T01:35:10.246Z,8.00
2023-06-14T01:36:14.727Z,7.50
2023-06-14T01:37:26.006Z,8.75
2023-06-14T01:38:30.490Z,7.50
2023-06-14T01:39:34.054Z,9.50
2023-06-14T01:40:37.520Z,9.00
2023-06-14T01:42:01.795Z,9.00
2023-06-14T01:43:33.000Z,8.25
2023-06-14T01:44:37.074Z,8.00
2023-06-14T01:45:43.951Z,8.00
2023-06-14T01:46:47.877Z,7.75
2023-06-14T01:47:58.070Z,8.00
2023-06-14T01:49:01.810Z,6.00
2023-06-14T01:50:07.988Z,9.00
2023-06-14T01:51:10.990Z,10.00
2023-06-14T01:52:13.963Z,10.00
2023-06-14T01:53:24.014Z,10.50
2023-06-14T01:54:28.132Z,10.00
2023-06-14T01:55:31.128Z,9.00
2023-06-14T01:56:34.952Z,7.00
2023-06-14T01:57:38.333Z,9.00
2023-06-14T01:58:48.026Z,9.75
2023-06-14T01:59:51.892Z,12.25
2023-06-14T02:01:16.070Z,9.75
2023-06-14T02:02:19.369Z,8.75
2023-06-14T02:03:22.249Z,8.00
2023-06-14T02:04:32.029Z,10.00
2023-06-14T02:05:36.921Z,11.50
2023-06-14T02:06:40.427Z,12.00
2023-06-14T02:07:43.349Z,12.25
2023-06-14T02:08:46.421Z,11.75
2023-06-14T02:09:56.082Z,15.00
2023-06-14T02:10:58.942Z,15.00
2023-06-14T02:12:02.053Z,11.75
2023-06-14T02:13:05.137Z,10.00
2023-06-14T02:14:09.196Z,15.25
2023-06-14T02:15:43.116Z,14.00
2023-06-14T02:16:52.712Z,15.00
2023-06-14T02:18:06.322Z,15.00
2023-06-14T02:19:09.236Z,15.00
2023-06-14T02:20:19.129Z,13.00
2023-06-14T02:21:22.537Z,11.00
2023-06-14T02:22:25.564Z,11.00
2023-06-14T02:23:28.560Z,10.25
2023-06-14T02:24:31.491Z,14.75
2023-06-14T02:25:41.101Z,10.25
2023-06-14T02:26:44.375Z,13.50
2023-06-14T02:27:47.387Z,16.00
2023-06-14T02:28:50.559Z,16.00
2023-06-14T02:29:53.461Z,15.25
2023-06-14T02:31:03.125Z,15.00
2023-06-14T02:32:09.831Z,12.00
2023-06-14T02:33:15.389Z,15.00
2023-06-14T02:34:22.264Z,15.00
2023-06-14T02:35:28.647Z,14.75
2023-06-14T02:36:41.112Z,12.00
2023-06-14T02:37:45.148Z,12.00
2023-06-14T02:38:49.196Z,13.00
2023-06-14T02:39:52.072Z,11.00
2023-06-14T02:40:55.001Z,14.00
2023-06-14T02:42:05.140Z,13.00
2023-06-14T02:43:08.123Z,15.00
2023-06-14T02:44:14.183Z,12.00
2023-06-14T02:45:17.446Z,12.75
2023-06-14T02:46:20.432Z,14.75
2023-06-14T02:47:30.189Z,16.50
2023-06-14T02:48:33.256Z,14.25
2023-06-14T02:49:36.187Z,15.00
2023-06-14T02:50:39.090Z,16.00
2023-06-14T02:51:42.670Z,16.00
2023-06-14T02:52:53.133Z,17.00
2023-06-14T02:53:56.052Z,17.00
2023-06-14T02:54:59.121Z,16.00
2023-06-14T02:56:02.014Z,16.75
2023-06-14T02:57:05.076Z,15.00
2023-06-14T02:58:15.153Z,17.00
2023-06-14T02:59:19.362Z,17.00
2023-06-14T03:00:23.191Z,15.00
2023-06-14T03:01:50.156Z,12.50
2023-06-14T03:03:00.242Z,15.00
2023-06-14T03:04:05.620Z,12.00
2023-06-14T03:05:09.584Z,16.00
2023-06-14T03:06:15.282Z,14.25
2023-06-14T03:07:22.014Z,18.50
2023-06-14T03:08:36.172Z,16.25
2023-06-14T03:09:39.888Z,16.00
2023-06-14T03:10:43.137Z,15.75
2023-06-14T03:11:46.295Z,15.00
2023-06-14T03:13:12.195Z,15.00
2023-06-14T03:14:15.793Z,17.00
2023-06-14T03:15:19.907Z,16.00
2023-06-14T03:16:23.906Z,15.00
2023-06-14T03:17:32.182Z,15.25
2023-06-14T03:18:44.212Z,16.00
2023-06-14T03:19:47.109Z,16.00
2023-06-14T03:21:11.335Z,17.00
2023-06-14T03:22:14.377Z,16.50
2023-06-14T03:23:17.295Z,15.75
2023-06-14T03:24:27.398Z,17.00
2023-06-14T03:25:33.647Z,17.00
2023-06-14T03:26:36.661Z,17.25
2023-06-14T03:27:40.166Z,16.75
2023-06-14T03:28:44.334Z,17.75
2023-06-14T03:29:54.207Z,17.00
2023-06-14T03:30:57.369Z,18.00
2023-06-14T03:32:02.688Z,15.25
2023-06-14T03:33:07.229Z,18.00
2023-06-14T03:34:11.429Z,18.00
2023-06-14T03:35:26.267Z,18.25
2023-06-14T03:36:30.242Z,20.00
2023-06-14T03:37:33.271Z,16.00
2023-06-14T03:38:36.988Z,16.25
2023-06-14T03:39:39.941Z,16.00
2023-06-14T03:40:50.292Z,13.00
2023-06-14T03:41:53.150Z,17.00
2023-06-14T03:42:57.315Z,17.00
2023-06-14T03:44:00.179Z,15.00
2023-06-14T03:45:03.651Z,15.25
2023-06-14T03:46:33.354Z,15.00
2023-06-14T03:47:44.680Z,17.50
2023-06-14T03:49:07.332Z,16.00
2023-06-14T03:50:26.279Z,16.00
2023-06-14T03:51:43.081Z,17.00
2023-06-14T03:52:46.222Z,17.25
2023-06-14T03:54:06.033Z,17.50
2023-06-14T03:56:25.263Z,18.00
2023-06-14T03:57:28.512Z,14.75
2023-06-14T03:58:31.558Z,15.75
2023-06-14T03:59:34.417Z,15.00
2023-06-14T04:00:38.234Z,16.00
2023-06-14T04:01:55.392Z,16.75
2023-06-14T04:03:11.705Z,15.50
2023-06-14T04:04:14.956Z,18.00
2023-06-14T04:05:19.070Z,18.50
2023-06-14T04:06:22.200Z,17.00
2023-06-14T04:07:32.301Z,18.50
2023-06-14T04:08:35.776Z,18.00
2023-06-14T04:09:38.802Z,18.00
2023-06-14T04:10:41.770Z,18.00
2023-06-14T04:11:44.662Z,17.00
2023-06-14T04:12:54.332Z,18.00
2023-06-14T04:13:58.736Z,19.25
2023-06-14T04:15:15.606Z,19.00
2023-06-14T04:16:23.365Z,17.00
2023-06-14T04:17:33.344Z,18.50
2023-06-14T04:18:36.243Z,16.00
2023-06-14T04:19:39.238Z,16.00
2023-06-14T04:20:42.958Z,17.25
2023-06-14T04:21:46.082Z,17.25
2023-06-14T04:22:55.324Z,19.00
2023-06-14T04:23:58.315Z,19.00
2023-06-14T04:25:05.910Z,17.00
2023-06-14T04:26:08.819Z,17.00
2023-06-14T04:27:11.737Z,17.00
2023-06-14T04:28:24.366Z,17.00
2023-06-14T04:29:29.050Z,16.00
2023-06-14T04:30:33.882Z,15.00
2023-06-14T04:31:39.866Z,16.25
2023-06-14T04:32:42.778Z,16.25
2023-06-14T04:33:52.489Z,16.75
2023-06-14T04:34:56.507Z,17.00
2023-06-14T04:35:59.403Z,16.00
2023-06-14T04:37:03.528Z,15.00
2023-06-14T04:38:18.400Z,15.25
2023-06-14T04:39:23.711Z,15.00
2023-06-14T04:40:26.595Z,15.00
2023-06-14T04:41:32.828Z,14.00
2023-06-14T04:42:35.803Z,12.50
2023-06-14T04:43:46.417Z,15.50
2023-06-14T04:44:51.155Z,17.00
2023-06-14T04:45:56.805Z,18.00
2023-06-14T04:47:01.024Z,18.00
2023-06-14T04:48:03.988Z,15.00
2023-06-14T04:49:13.409Z,15.75
2023-06-14T04:50:17.096Z,17.50
2023-06-14T04:51:24.507Z,18.75
2023-06-14T04:52:28.837Z,17.00
2023-06-14T04:53:31.890Z,17.00
2023-06-14T04:54:42.463Z,17.00
2023-06-14T04:55:47.232Z,16.50
2023-06-14T04:56:50.094Z,16.00
2023-06-14T04:57:55.764Z,17.00
2023-06-14T04:58:59.074Z,16.00
2023-06-14T05:00:15.603Z,16.00
2023-06-14T05:01:18.670Z,17.00
2023-06-14T05:02:41.515Z,14.75
2023-06-14T05:03:47.439Z,14.75
2023-06-14T05:04:56.482Z,15.00
2023-06-14T05:05:59.356Z,16.50
2023-06-14T05:07:03.478Z,17.00
2023-06-14T05:08:06.972Z,14.75
2023-06-14T05:09:09.928Z,17.00
2023-06-14T05:10:19.477Z,17.75
2023-06-14T05:11:22.767Z,15.00
2023-06-14T05:12:25.801Z,15.50
2023-06-14T05:13:30.286Z,16.50
2023-06-14T05:14:33.153Z,14.50
2023-06-14T05:15:42.550Z,15.00
2023-06-14T05:16:45.561Z,13.50
2023-06-14T05:17:55.575Z,16.00
2023-06-14T05:18:58.970Z,16.00
2023-06-14T05:20:02.211Z,16.75
2023-06-14T05:21:13.529Z,15.00
2023-06-14T05:22:16.451Z,13.00
2023-06-14T05:23:19.331Z,13.00
2023-06-14T05:24:22.475Z,14.75
2023-06-14T05:25:25.513Z,15.25
2023-06-14T05:26:37.556Z,14.00
2023-06-14T05:27:40.616Z,15.25
2023-06-14T05:28:43.529Z,13.00
2023-06-14T05:29:46.396Z,13.00
2023-06-14T05:30:49.271Z,11.50
2023-06-14T05:31:58.657Z,12.00
2023-06-14T05:33:01.878Z,13.50
2023-06-14T05:34:04.800Z,13.00
2023-06-14T05:35:08.351Z,14.50
2023-06-14T05:36:11.288Z,14.00
2023-06-14T05:37:21.559Z,13.00
2023-06-14T05:38:24.517Z,13.00
2023-06-14T05:39:27.561Z,13.25
2023-06-14T05:40:30.578Z,12.00
2023-06-14T05:41:33.625Z,14.75
2023-06-14T05:42:43.549Z,14.00
2023-06-14T05:43:46.447Z,13.00
2023-06-14T05:44:49.312Z,13.00
2023-06-14T05:45:52.559Z,14.50
2023-06-14T05:46:55.566Z,15.00
2023-06-14T05:48:05.635Z,15.00
2023-06-14T05:49:08.612Z,13.00
2023-06-14T05:50:12.350Z,13.75
2023-06-14T05:51:15.251Z,13.50
2023-06-14T05:52:18.334Z,11.25
2023-06-14T05:53:27.584Z,10.75
2023-06-14T05:54:30.472Z,11.25
2023-06-14T05:55:33.379Z,13.25
2023-06-14T05:56:37.182Z,14.50
2023-06-14T05:57:40.313Z,13.00
2023-06-14T05:58:49.612Z,11.00
2023-06-14T05:59:53.589Z,11.00
2023-06-14T06:00:56.465Z,12.00
2023-06-14T06:01:59.397Z,16.50
2023-06-14T06:03:22.704Z,14.75
2023-06-14T06:04:32.723Z,14.00
2023-06-14T06:05:35.628Z,15.50
2023-06-14T06:06:38.893Z,16.00
2023-06-14T06:07:46.828Z,14.75
2023-06-14T06:08:49.741Z,14.25
2023-06-14T06:09:59.623Z,14.00
2023-06-14T06:11:03.786Z,15.50
2023-06-14T06:12:09.197Z,15.00
2023-06-14T06:13:12.358Z,16.00
2023-06-14T06:14:15.356Z,15.00
2023-06-14T06:15:24.646Z,17.25
2023-06-14T06:16:27.615Z,18.00
2023-06-14T06:17:39.078Z,16.00
2023-06-14T06:18:53.661Z,13.00
2023-06-14T06:20:03.641Z,15.00
2023-06-14T06:21:07.108Z,13.25
2023-06-14T06:22:10.370Z,17.00
2023-06-14T06:23:13.388Z,15.00
2023-06-14T06:24:22.731Z,16.25
2023-06-14T06:25:28.098Z,16.50
2023-06-14T06:26:30.987Z,16.50
2023-06-14T06:27:33.964Z,18.75
2023-06-14T06:28:37.181Z,14.75
2023-06-14T06:29:46.675Z,16.00
2023-06-14T06:30:49.589Z,17.25
2023-06-14T06:31:52.548Z,17.25
2023-06-14T06:32:55.661Z,15.25
2023-06-14T06:33:58.788Z,12.00
2023-06-14T06:35:08.696Z,10.00
2023-06-14T06:36:12.946Z,13.75
2023-06-14T06:37:16.494Z,14.00
2023-06-14T06:38:21.110Z,14.75
2023-06-14T06:39:23.964Z,15.25
2023-06-14T06:40:33.712Z,16.25
2023-06-14T06:41:37.326Z,17.50
2023-06-14T06:42:40.200Z,16.00
2023-06-14T06:43:43.055Z,15.50
2023-06-14T06:44:45.934Z,15.25
2023-06-14T06:45:55.721Z,17.00
2023-06-14T06:47:00.077Z,15.75
2023-06-14T06:48:03.011Z,17.50
2023-06-14T06:49:05.921Z,16.50
2023-06-14T06:50:10.154Z,17.00
2023-06-14T06:51:20.703Z,13.50
2023-06-14T06:52:29.714Z,10.00
2023-06-14T06:53:40.348Z,9.00
2023-06-14T06:54:46.011Z,11.00
2023-06-14T06:55:49.027Z,11.25
2023-06-14T06:56:52.019Z,13.75
2023-06-14T06:58:02.833Z,14.00
2023-06-14T06:59:05.759Z,15.00
2023-06-14T07:00:12.539Z,18.00
2023-06-14T07:01:16.417Z,16.25
2023-06-14T07:02:26.818Z,14.25
2023-06-14T07:03:49.767Z,16.00
2023-06-14T07:04:53.135Z,13.25
2023-06-14T07:05:56.063Z,12.00
2023-06-14T07:07:05.770Z,13.00
2023-06-14T07:08:08.627Z,12.25
2023-06-14T07:09:15.368Z,15.00
2023-06-14T07:10:18.940Z,14.00
2023-06-14T07:11:22.472Z,13.00
2023-06-14T07:12:32.764Z,10.25
2023-06-14T07:13:35.654Z,11.00
2023-06-14T07:14:38.554Z,10.25
2023-06-14T07:15:41.627Z,13.50
2023-06-14T07:16:45.378Z,15.75
2023-06-14T07:17:54.805Z,13.50
2023-06-14T07:18:57.910Z,13.00
2023-06-14T07:20:00.797Z,12.75
2023-06-14T07:21:04.190Z,15.00
2023-06-14T07:22:07.088Z,12.00
2023-06-14T07:23:16.817Z,11.00
2023-06-14T07:24:19.823Z,9.50
2023-06-14T07:25:22.812Z,12.75
2023-06-14T07:26:26.031Z,8.50
2023-06-14T07:27:28.901Z,8.75
2023-06-14T07:28:38.849Z,9.00
2023-06-14T07:29:41.871Z,12.50
2023-06-14T07:30:44.784Z,14.00
2023-06-14T07:31:47.822Z,13.00
2023-06-14T07:32:51.852Z,12.00
2023-06-14T07:34:01.013Z,14.00
2023-06-14T07:35:04.104Z,11.50
2023-06-14T07:36:07.140Z,10.00
2023-06-14T07:37:10.098Z,8.50
2023-06-14T07:38:19.843Z,11.00
2023-06-14T07:39:23.163Z,11.00
2023-06-14T07:40:26.103Z,11.00
2023-06-14T07:41:29.324Z,12.50
2023-06-14T07:42:32.237Z,10.50
2023-06-14T07:43:41.840Z,12.00
2023-06-14T07:44:44.727Z,9.50
2023-06-14T07:46:02.136Z,9.00
2023-06-14T07:47:09.130Z,11.00
2023-06-14T07:48:12.202Z,15.00
2023-06-14T07:49:22.888Z,12.25
2023-06-14T07:50:25.897Z,12.00
2023-06-14T07:51:28.826Z,11.00
2023-06-14T07:52:31.927Z,14.00
2023-06-14T07:53:34.876Z,13.00
2023-06-14T07:54:44.874Z,13.00
2023-06-14T07:55:53.879Z,17.00
2023-06-14T07:56:58.521Z,14.00
2023-06-14T07:58:01.528Z,10.00
2023-06-14T07:59:04.883Z,9.00
2023-06-14T08:00:18.921Z,9.00
2023-06-14T08:01:22.545Z,9.75
2023-06-14T08:02:25.664Z,10.00
2023-06-14T08:03:29.088Z,8.00
2023-06-14T08:04:51.884Z,11.25
2023-06-14T08:06:02.083Z,9.00
2023-06-14T08:07:07.678Z,10.00
2023-06-14T08:08:10.838Z,9.00
2023-06-14T08:09:15.331Z,8.00
2023-06-14T08:10:18.380Z,8.50
2023-06-14T08:11:27.910Z,10.00
2023-06-14T08:12:30.769Z,8.00
2023-06-14T08:13:33.707Z,8.00
2023-06-14T08:14:36.690Z,10.25
2023-06-14T08:15:39.605Z,17.00
2023-06-14T08:16:48.916Z,18.00
2023-06-14T08:17:52.810Z,18.50
2023-06-14T08:18:55.761Z,18.00
2023-06-14T08:19:59.626Z,17.00
2023-06-14T08:21:02.695Z,14.75
2023-06-14T08:22:12.926Z,9.50
2023-06-14T08:23:15.792Z,13.50
2023-06-14T08:24:19.432Z,17.00
2023-06-14T08:25:28.956Z,29.50
2023-06-14T08:26:32.543Z,55.25
2023-06-14T08:27:35.390Z,66.25
2023-06-14T08:28:38.386Z,56.75
2023-06-14T08:29:42.852Z,38.50
2023-06-14T08:30:51.960Z,24.50
2023-06-14T08:31:54.956Z,17.25
2023-06-14T08:33:14.015Z,18.00
2023-06-14T08:34:19.267Z,18.00
2023-06-14T08:35:22.407Z,18.00
2023-06-14T08:36:31.964Z,17.75
2023-06-14T08:37:37.832Z,19.00
2023-06-14T08:38:41.561Z,20.00
2023-06-14T08:39:44.614Z,18.00
2023-06-14T08:40:52.836Z,17.00
2023-06-14T08:42:06.418Z,13.00
2023-06-14T08:43:10.925Z,14.00
2023-06-14T08:44:14.482Z,13.00
2023-06-14T08:45:17.935Z,10.75
2023-06-14T08:46:31.111Z,12.25
2023-06-14T08:47:41.822Z,13.00
2023-06-14T08:48:45.520Z,11.00
2023-06-14T08:49:50.413Z,12.00
2023-06-14T08:50:55.412Z,10.75
2023-06-14T08:52:09.111Z,10.00
2023-06-14T08:53:21.943Z,16.50
2023-06-14T08:54:26.464Z,16.00
2023-06-14T08:55:32.966Z,16.00
2023-06-14T08:56:47.124Z,15.00
2023-06-14T08:57:51.727Z,15.00
2023-06-14T08:58:55.086Z,11.75
2023-06-14T08:59:59.336Z,8.50
2023-06-14T09:01:04.126Z,7.75
2023-06-14T09:02:15.141Z,8.00
2023-06-14T09:03:19.482Z,8.50
2023-06-14T09:04:26.520Z,6.25
2023-06-14T09:05:49.141Z,5.75
2023-06-14T09:06:55.221Z,6.00
2023-06-14T09:08:06.898Z,7.50
2023-06-14T09:09:10.121Z,9.50
2023-06-14T09:10:15.417Z,7.25
2023-06-14T09:11:23.695Z,9.00
2023-06-14T09:12:33.159Z,7.00
2023-06-14T09:13:36.031Z,8.75
2023-06-14T09:14:40.897Z,7.00
2023-06-14T09:15:44.401Z,9.00
2023-06-14T09:16:47.789Z,8.00
2023-06-14T09:17:57.192Z,10.00
2023-06-14T09:19:00.516Z,11.00
2023-06-14T09:20:20.605Z,10.75
2023-06-14T09:21:24.014Z,8.00
2023-06-14T09:22:26.950Z,9.00
2023-06-14T09:23:36.184Z,10.00
2023-06-14T09:24:39.169Z,7.00
2023-06-14T09:25:46.412Z,6.00
2023-06-14T09:26:50.106Z,7.00
2023-06-14T09:27:53.956Z,7.00
2023-06-14T09:29:04.165Z,6.00
2023-06-14T09:30:11.598Z,6.00
2023-06-14T09:31:16.657Z,5.50
2023-06-14T09:32:19.599Z,6.00
2023-06-14T09:33:22.891Z,8.00
2023-06-14T09:34:33.180Z,6.00
2023-06-14T09:35:36.310Z,6.25
2023-06-14T09:36:39.835Z,7.00
2023-06-14T09:37:43.293Z,8.00
2023-06-14T09:39:26.233Z,6.75
2023-06-14T09:40:29.553Z,8.00
2023-06-14T09:41:40.108Z,6.00
2023-06-14T09:42:44.014Z,7.25
2023-06-14T09:43:49.366Z,7.00
2023-06-14T09:44:59.236Z,8.75
2023-06-14T09:46:07.186Z,9.00
2023-06-14T09:47:10.578Z,9.00
2023-06-14T09:48:14.369Z,7.50
2023-06-14T09:49:17.483Z,8.00
2023-06-14T09:50:27.301Z,10.00
2023-06-14T09:51:34.322Z,7.00
2023-06-14T09:52:37.866Z,8.25
2023-06-14T09:53:43.687Z,7.00
2023-06-14T09:54:49.768Z,8.00
2023-06-14T09:56:03.268Z,7.00
2023-06-14T09:57:09.299Z,7.25
2023-06-14T09:58:13.082Z,9.25
2023-06-14T09:59:21.482Z,8.75
2023-06-14T10:00:26.637Z,6.25
2023-06-14T10:01:39.269Z,6.25
2023-06-14T10:02:56.320Z,10.00
2023-06-14T10:04:11.143Z,6.75
2023-06-14T10:05:18.482Z,5.25
2023-06-14T10:06:42.270Z,7.00
2023-06-14T10:07:57.256Z,6.00
2023-06-14T10:09:02.431Z,4.00
2023-06-14T10:10:05.574Z,6.25
2023-06-14T10:11:09.310Z,6.00
2023-06-14T10:12:13.026Z,7.00
2023-06-14T10:13:23.248Z,8.50
2023-06-14T10:14:26.326Z,6.00
2023-06-14T10:15:50.548Z,6.50
2023-06-14T10:17:29.703Z,6.50
2023-06-14T10:18:51.307Z,6.00
2023-06-14T10:20:22.357Z,6.00
2023-06-14T10:21:39.240Z,7.00
2023-06-14T10:23:04.330Z,7.00
2023-06-14T10:24:10.334Z,7.00
2023-06-14T10:25:30.178Z,8.00
2023-06-14T10:26:33.438Z,4.75
2023-06-14T10:27:37.957Z,6.00
2023-06-14T10:28:47.312Z,6.00
2023-06-14T10:29:56.286Z,4.00
2023-06-14T10:31:09.779Z,7.00
2023-06-14T10:32:12.888Z,6.75
2023-06-14T10:33:18.001Z,6.00
2023-06-14T10:34:35.349Z,5.00
2023-06-14T10:35:38.373Z,6.00
2023-06-14T10:36:45.798Z,6.00
2023-06-14T10:37:49.301Z,6.00
2023-06-14T10:39:15.355Z,6.50
2023-06-14T10:40:33.598Z,7.00
2023-06-14T10:41:40.998Z,6.00
2023-06-14T10:42:53.914Z,7.00
2023-06-14T10:44:21.333Z,6.00
2023-06-14T10:45:24.216Z,5.50
2023-06-14T10:46:31.561Z,4.00
2023-06-14T10:47:40.047Z,4.50
2023-06-14T10:48:44.396Z,5.75
2023-06-14T10:49:57.369Z,4.00
2023-06-14T10:51:04.655Z,6.50
2023-06-14T10:52:08.942Z,6.25
2023-06-14T10:53:27.584Z,6.00
2023-06-14T10:54:30.467Z,5.50
2023-06-14T10:55:44.391Z,7.00
2023-06-14T10:56:52.011Z,6.00
2023-06-14T10:58:00.876Z,6.00
2023-06-14T10:59:03.809Z,5.25
2023-06-14T11:00:22.388Z,6.00
2023-06-14T11:01:59.965Z,5.00
2023-06-14T11:03:44.284Z,5.00
2023-06-14T11:04:54.858Z,5.00
2023-06-14T11:06:06.385Z,5.00
2023-06-14T11:07:59.456Z,5.50
2023-06-14T11:09:36.651Z,5.00
2023-06-14T11:10:48.422Z,4.00
2023-06-14T11:11:53.520Z,5.00
2023-06-14T11:12:57.446Z,6.00
2023-06-14T11:14:02.453Z,6.00
2023-06-14T11:15:05.631Z,5.00
2023-06-14T11:16:23.488Z,7.00
2023-06-14T11:17:26.810Z,6.00
2023-06-14T11:18:31.103Z,5.00
2023-06-14T11:19:34.209Z,6.00
2023-06-14T11:20:39.607Z,4.25
2023-06-14T11:21:49.443Z,4.00
2023-06-14T11:22:52.347Z,5.00
2023-06-14T11:23:56.861Z,5.00
2023-06-14T11:25:02.697Z,5.00
2023-06-14T11:26:13.431Z,5.00
2023-06-14T11:27:16.466Z,6.00
2023-06-14T11:28:21.903Z,4.75
2023-06-14T11:29:24.844Z,5.00
2023-06-14T11:30:28.096Z,4.00
2023-06-14T11:31:37.542Z,5.00
2023-06-14T11:32:40.892Z,5.00
2023-06-14T11:33:43.888Z,6.00
2023-06-14T11:34:49.190Z,6.00
2023-06-14T11:35:52.087Z,5.00
2023-06-14T11:37:01.478Z,5.00
2023-06-14T11:38:04.686Z,5.00
2023-06-14T11:39:11.604Z,5.00
2023-06-14T11:40:14.955Z,4.50
2023-06-14T11:41:24.494Z,4.25
2023-06-14T11:42:30.302Z,5.50
2023-06-14T11:43:35.935Z,5.00
2023-06-14T11:44:38.837Z,6.00
2023-06-14T11:45:41.885Z,6.00
2023-06-14T11:46:51.542Z,5.00
2023-06-14T11:47:57.680Z,6.00
2023-06-14T11:49:00.803Z,4.75
2023-06-14T11:50:04.888Z,4.00
2023-06-14T11:51:07.873Z,5.25
2023-06-14T11:52:17.528Z,6.00
2023-06-14T11:53:20.677Z,5.00
2023-06-14T11:54:23.663Z,6.00
2023-06-14T11:55:27.170Z,4.00
2023-06-14T11:56:36.518Z,5.00
2023-06-14T11:57:41.195Z,5.00
2023-06-14T11:58:46.138Z,4.00
2023-06-14T11:59:49.664Z,5.00
2023-06-14T12:00:53.023Z,5.50
2023-06-14T12:02:05.552Z,4.00
2023-06-14T12:03:09.399Z,5.00
2023-06-14T12:04:12.382Z,5.50
2023-06-14T12:05:15.518Z,4.75
2023-06-14T12:06:20.288Z,6.00
2023-06-14T12:07:31.559Z,5.00
2023-06-14T12:08:54.573Z,6.00
2023-06-14T12:09:57.959Z,6.00
2023-06-14T12:11:00.944Z,4.75
2023-06-14T12:12:03.886Z,3.75
2023-06-14T12:13:14.555Z,6.25
2023-06-14T12:14:18.972Z,5.00
2023-06-14T12:15:22.730Z,5.25
2023-06-14T12:16:34.080Z,6.50
2023-06-14T12:17:54.673Z,3.75
2023-06-14T12:18:57.637Z,5.00
2023-06-14T12:20:00.554Z,6.75
2023-06-14T12:21:07.392Z,5.25
2023-06-14T12:22:12.538Z,4.00
2023-06-14T12:23:21.598Z,5.00
2023-06-14T12:24:31.909Z,6.00
2023-06-14T12:25:37.814Z,6.00
2023-06-14T12:26:49.632Z,6.75
2023-06-14T12:27:53.060Z,6.00
2023-06-14T12:28:56.492Z,7.00
2023-06-14T12:30:05.970Z,5.00
2023-06-14T12:31:09.522Z,5.00
2023-06-14T12:32:19.789Z,6.50
2023-06-14T12:33:23.009Z,6.25
2023-06-14T12:34:26.712Z,7.75
2023-06-14T12:35:29.637Z,8.00
2023-06-14T12:36:40.649Z,6.75
2023-06-14T12:37:43.528Z,7.00
2023-06-14T12:38:47.927Z,6.75
2023-06-14T12:39:50.877Z,7.00
2023-06-14T12:40:54.980Z,7.00
2023-06-14T12:42:04.621Z,6.50
2023-06-14T12:43:07.967Z,8.00
2023-06-14T12:44:10.911Z,7.00
2023-06-14T12:45:13.919Z,6.00
2023-06-14T12:46:17.348Z,8.00
2023-06-14T12:47:26.655Z,9.25
2023-06-14T12:48:29.992Z,8.50
2023-06-14T12:49:32.857Z,7.00
2023-06-14T12:50:35.816Z,7.00
2023-06-14T12:51:39.351Z,8.00
2023-06-14T12:52:48.680Z,7.25
2023-06-14T12:53:51.746Z,8.00
2023-06-14T12:54:54.643Z,8.50
2023-06-14T12:55:57.597Z,6.00
2023-06-14T12:57:00.561Z,6.50
2023-06-14T12:58:10.671Z,6.00
2023-06-14T12:59:13.588Z,8.75
2023-06-14T13:00:17.368Z,7.00
2023-06-14T13:01:21.440Z,7.50
2023-06-14T13:02:26.415Z,6.50
2023-06-14T13:03:36.884Z,7.00
2023-06-14T13:04:39.915Z,6.00
2023-06-14T13:05:43.244Z,7.00
2023-06-14T13:06:46.178Z,7.00
2023-06-14T13:07:49.087Z,6.00
2023-06-14T13:09:06.787Z,7.00
2023-06-14T13:10:17.360Z,8.25
2023-06-14T13:11:20.424Z,9.00
2023-06-14T13:12:23.407Z,7.50
2023-06-14T13:13:26.329Z,8.00
2023-06-14T13:14:35.788Z,8.00
2023-06-14T13:15:38.727Z,7.75
2023-06-14T13:16:41.665Z,8.00
2023-06-14T13:17:46.141Z,8.00
2023-06-14T13:18:49.067Z,7.00
2023-06-14T13:19:58.808Z,6.50
2023-06-14T13:21:01.798Z,7.75
2023-06-14T13:22:05.244Z,8.25
2023-06-14T13:23:09.799Z,7.00
2023-06-14T13:24:12.822Z,8.00
2023-06-14T13:25:22.796Z,7.00
2023-06-14T13:26:32.778Z,7.00
2023-06-14T13:27:35.672Z,6.00
2023-06-14T13:28:38.572Z,8.25
2023-06-14T13:29:41.440Z,8.00
2023-06-14T13:30:44.531Z,8.00
2023-06-14T13:31:53.844Z,8.00
2023-06-14T13:32:58.406Z,7.00
2023-06-14T13:34:01.375Z,7.00
2023-06-14T13:35:04.325Z,8.00
2023-06-14T13:36:13.845Z,7.00
2023-06-14T13:37:16.953Z,7.00
2023-06-14T13:38:19.826Z,7.50
2023-06-14T13:39:22.899Z,8.50
2023-06-14T13:40:25.887Z,9.00
2023-06-14T13:41:42.876Z,7.00
2023-06-14T13:42:46.021Z,8.50
2023-06-14T13:43:48.906Z,6.00
2023-06-14T13:44:53.800Z,6.00
2023-06-14T13:45:56.998Z,6.50
2023-06-14T13:47:06.839Z,6.00
2023-06-14T13:48:09.823Z,7.00
2023-06-14T13:49:12.920Z,7.00
2023-06-14T13:50:16.074Z,5.00
2023-06-14T13:51:21.335Z,6.50
2023-06-14T13:52:30.861Z,8.00
2023-06-14T13:53:34.088Z,9.50
2023-06-14T13:54:37.031Z,8.00
2023-06-14T13:55:39.931Z,7.00
2023-06-14T13:56:43.078Z,7.00
2023-06-14T13:57:53.869Z,6.00
2023-06-14T13:58:56.839Z,5.00
2023-06-14T14:00:03.408Z,7.00
2023-06-14T14:01:06.532Z,9.00
2023-06-14T14:02:09.854Z,8.00
2023-06-14T14:03:19.957Z,5.00
2023-06-14T14:04:22.959Z,6.00
2023-06-14T14:05:31.032Z,6.00
2023-06-14T14:06:34.455Z,8.50
2023-06-14T14:07:38.478Z,6.00
2023-06-14T14:08:47.972Z,6.00
2023-06-14T14:10:10.984Z,6.25
2023-06-14T14:11:14.770Z,7.00
2023-06-14T14:12:17.703Z,7.25
2023-06-14T14:13:20.651Z,7.00
2023-06-14T14:14:30.002Z,5.00
2023-06-14T14:15:32.862Z,7.00
2023-06-14T14:16:35.887Z,6.00
2023-06-14T14:17:39.055Z,6.00
2023-06-14T14:18:42.161Z,5.50
2023-06-14T14:19:52.031Z,6.00
2023-06-14T14:20:54.979Z,5.00
2023-06-14T14:21:57.930Z,5.00
2023-06-14T14:23:01.921Z,7.00
2023-06-14T14:24:04.950Z,7.00
2023-06-14T14:25:15.052Z,6.00
2023-06-14T14:26:18.509Z,5.50
2023-06-14T14:27:21.570Z,6.00
2023-06-14T14:28:24.810Z,6.25
2023-06-14T14:29:31.315Z,6.00
2023-06-14T14:30:42.054Z,5.00
2023-06-14T14:31:45.358Z,5.50
2023-06-14T14:32:48.408Z,6.00
2023-06-14T14:33:51.316Z,6.25
2023-06-14T14:34:54.230Z,7.00
2023-06-14T14:36:04.054Z,6.25